sensor_id;sensor_type;location;lat;lon;timestamp;temperature;humidity
15690;DHT22;7945;48.816;11.506;2022-07-04T00:01:04;22.70;78.80
15690;DHT22;7945;48.816;11.506;2022-07-04T00:03:31;22.70;78.50
15690;DHT22;7945;48.816;11.506;2022-07-04T00:05:58;22.70;79.80
15690;DHT22;7945;48.816;11.506;2022-07-04T00:08:25;22.70;80.20
15690;DHT22;7945;48.816;11.506;2022-07-04T00:10:52;22.60;80.50
15690;DHT22;7945;48.816;11.506;2022-07-04T00:13:19;22.60;80.90
15690;DHT22;7945;48.816;11.506;2022-07-04T00:15:45;22.50;80.90
15690;DHT22;7945;48.816;11.506;2022-07-04T00:18:14;22.40;80.80
15690;DHT22;7945;48.816;11.506;2022-07-04T00:20:41;22.40;80.50
15690;DHT22;7945;48.816;11.506;2022-07-04T00:23:08;22.40;80.90
15690;DHT22;7945;48.816;11.506;2022-07-04T00:25:35;22.30;80.60
15690;DHT22;7945;48.816;11.506;2022-07-04T00:28:01;22.40;81.10
15690;DHT22;7945;48.816;11.506;2022-07-04T00:30:28;22.40;81.10
15690;DHT22;7945;48.816;11.506;2022-07-04T00:32:55;22.40;80.40
15690;DHT22;7945;48.816;11.506;2022-07-04T00:35:24;22.50;80.40
15690;DHT22;7945;48.816;11.506;2022-07-04T00:37:51;22.50;80.70
15690;DHT22;7945;48.816;11.506;2022-07-04T00:40:18;22.60;81.30
15690;DHT22;7945;48.816;11.506;2022-07-04T00:42:45;22.60;80.70
15690;DHT22;7945;48.816;11.506;2022-07-04T00:45:13;22.60;80.60
15690;DHT22;7945;48.816;11.506;2022-07-04T00:47:40;22.60;80.60
15690;DHT22;7945;48.816;11.506;2022-07-04T00:50:08;22.60;80.60
15690;DHT22;7945;48.816;11.506;2022-07-04T00:52:37;22.60;80.60
15690;DHT22;7945;48.816;11.506;2022-07-04T00:55:05;22.60;80.30
15690;DHT22;7945;48.816;11.506;2022-07-04T00:57:33;22.60;80.00
15690;DHT22;7945;48.816;11.506;2022-07-04T01:00:01;22.60;80.10
15690;DHT22;7945;48.816;11.506;2022-07-04T01:02:29;22.60;80.00
15690;DHT22;7945;48.816;11.506;2022-07-04T01:04:56;22.50;79.80
15690;DHT22;7945;48.816;11.506;2022-07-04T01:07:24;22.60;80.20
15690;DHT22;7945;48.816;11.506;2022-07-04T01:09:53;22.60;80.30
15690;DHT22;7945;48.816;11.506;2022-07-04T01:12:27;22.60;80.30
15690;DHT22;7945;48.816;11.506;2022-07-04T01:14:55;22.70;80.70
15690;DHT22;7945;48.816;11.506;2022-07-04T01:17:23;22.60;80.30
15690;DHT22;7945;48.816;11.506;2022-07-04T01:19:51;22.60;80.00
15690;DHT22;7945;48.816;11.506;2022-07-04T01:22:20;22.60;80.60
15690;DHT22;7945;48.816;11.506;2022-07-04T01:24:48;22.60;80.60
15690;DHT22;7945;48.816;11.506;2022-07-04T01:27:16;22.60;80.90
15690;DHT22;7945;48.816;11.506;2022-07-04T01:29:43;22.60;81.20
15690;DHT22;7945;48.816;11.506;2022-07-04T01:32:11;22.60;81.00
15690;DHT22;7945;48.816;11.506;2022-07-04T01:34:39;22.60;81.10
15690;DHT22;7945;48.816;11.506;2022-07-04T01:37:06;22.50;81.40
15690;DHT22;7945;48.816;11.506;2022-07-04T01:39:35;22.50;81.60
15690;DHT22;7945;48.816;11.506;2022-07-04T01:42:03;22.50;81.50
15690;DHT22;7945;48.816;11.506;2022-07-04T01:44:31;22.50;82.20
15690;DHT22;7945;48.816;11.506;2022-07-04T01:46:58;22.40;82.90
15690;DHT22;7945;48.816;11.506;2022-07-04T01:49:25;22.40;82.60
15690;DHT22;7945;48.816;11.506;2022-07-04T01:51:53;22.40;82.30
15690;DHT22;7945;48.816;11.506;2022-07-04T01:54:20;22.40;82.30
15690;DHT22;7945;48.816;11.506;2022-07-04T01:56:48;22.30;82.40
15690;DHT22;7945;48.816;11.506;2022-07-04T01:59:15;22.30;82.70
15690;DHT22;7945;48.816;11.506;2022-07-04T02:01:42;22.30;83.20
15690;DHT22;7945;48.816;11.506;2022-07-04T02:04:08;22.30;83.50
15690;DHT22;7945;48.816;11.506;2022-07-04T02:06:35;22.30;83.80
15690;DHT22;7945;48.816;11.506;2022-07-04T02:09:02;22.20;84.10
15690;DHT22;7945;48.816;11.506;2022-07-04T02:11:42;22.10;84.50
15690;DHT22;7945;48.816;11.506;2022-07-04T02:14:28;22.10;84.40
15690;DHT22;7945;48.816;11.506;2022-07-04T02:16:56;22.00;84.50
15690;DHT22;7945;48.816;11.506;2022-07-04T02:19:23;22.00;85.10
15690;DHT22;7945;48.816;11.506;2022-07-04T02:21:50;22.00;85.00
15690;DHT22;7945;48.816;11.506;2022-07-04T02:24:18;22.00;85.80
15690;DHT22;7945;48.816;11.506;2022-07-04T02:26:45;21.90;85.20
15690;DHT22;7945;48.816;11.506;2022-07-04T02:29:12;21.90;85.80
15690;DHT22;7945;48.816;11.506;2022-07-04T02:31:41;21.90;85.50
15690;DHT22;7945;48.816;11.506;2022-07-04T02:34:08;21.80;85.30
15690;DHT22;7945;48.816;11.506;2022-07-04T02:36:35;21.90;85.50
15690;DHT22;7945;48.816;11.506;2022-07-04T02:39:02;21.90;86.30
15690;DHT22;7945;48.816;11.506;2022-07-04T02:41:30;21.80;85.80
15690;DHT22;7945;48.816;11.506;2022-07-04T02:43:57;21.80;85.90
15690;DHT22;7945;48.816;11.506;2022-07-04T02:46:24;21.80;86.10
15690;DHT22;7945;48.816;11.506;2022-07-04T02:48:53;21.80;86.00
15690;DHT22;7945;48.816;11.506;2022-07-04T02:51:20;21.80;86.40
15690;DHT22;7945;48.816;11.506;2022-07-04T02:53:47;21.80;86.60
15690;DHT22;7945;48.816;11.506;2022-07-04T02:56:14;21.80;86.80
15690;DHT22;7945;48.816;11.506;2022-07-04T02:58:41;21.80;87.10
15690;DHT22;7945;48.816;11.506;2022-07-04T03:01:08;21.70;87.20
15690;DHT22;7945;48.816;11.506;2022-07-04T03:03:35;21.70;87.20
15690;DHT22;7945;48.816;11.506;2022-07-04T03:06:04;21.60;87.30
15690;DHT22;7945;48.816;11.506;2022-07-04T03:08:31;21.60;87.80
15690;DHT22;7945;48.816;11.506;2022-07-04T03:10:58;21.60;88.10
15690;DHT22;7945;48.816;11.506;2022-07-04T03:13:25;21.60;88.20
15690;DHT22;7945;48.816;11.506;2022-07-04T03:15:52;21.60;88.20
15690;DHT22;7945;48.816;11.506;2022-07-04T03:18:19;21.50;88.40
15690;DHT22;7945;48.816;11.506;2022-07-04T03:20:46;21.50;88.50
15690;DHT22;7945;48.816;11.506;2022-07-04T03:23:14;21.60;88.60
15690;DHT22;7945;48.816;11.506;2022-07-04T03:25:42;21.50;88.80
15690;DHT22;7945;48.816;11.506;2022-07-04T03:28:09;21.50;88.90
15690;DHT22;7945;48.816;11.506;2022-07-04T03:30:36;21.50;89.20
15690;DHT22;7945;48.816;11.506;2022-07-04T03:33:03;21.50;89.20
15690;DHT22;7945;48.816;11.506;2022-07-04T03:35:30;21.50;89.30
15690;DHT22;7945;48.816;11.506;2022-07-04T03:37:57;21.50;89.50
15690;DHT22;7945;48.816;11.506;2022-07-04T03:40:25;21.50;89.60
15690;DHT22;7945;48.816;11.506;2022-07-04T03:42:56;21.50;89.70
15690;DHT22;7945;48.816;11.506;2022-07-04T03:45:23;21.50;89.80
15690;DHT22;7945;48.816;11.506;2022-07-04T03:47:51;21.50;90.00
15690;DHT22;7945;48.816;11.506;2022-07-04T03:50:18;21.40;90.00
15690;DHT22;7945;48.816;11.506;2022-07-04T03:52:44;21.40;90.10
15690;DHT22;7945;48.816;11.506;2022-07-04T03:55:12;21.40;90.10
15690;DHT22;7945;48.816;11.506;2022-07-04T03:57:40;21.40;90.00
15690;DHT22;7945;48.816;11.506;2022-07-04T04:00:08;21.40;90.10
15690;DHT22;7945;48.816;11.506;2022-07-04T04:02:37;21.50;90.10
15690;DHT22;7945;48.816;11.506;2022-07-04T04:05:05;21.50;90.20
15690;DHT22;7945;48.816;11.506;2022-07-04T04:07:50;21.50;90.20
15690;DHT22;7945;48.816;11.506;2022-07-04T04:10:17;21.50;90.10
15690;DHT22;7945;48.816;11.506;2022-07-04T04:12:46;21.50;89.90
15690;DHT22;7945;48.816;11.506;2022-07-04T04:15:13;21.60;90.00
15690;DHT22;7945;48.816;11.506;2022-07-04T04:17:41;21.60;90.10
15690;DHT22;7945;48.816;11.506;2022-07-04T04:20:08;21.60;90.10
15690;DHT22;7945;48.816;11.506;2022-07-04T04:22:36;21.60;90.00
15690;DHT22;7945;48.816;11.506;2022-07-04T04:25:05;21.60;90.10
15690;DHT22;7945;48.816;11.506;2022-07-04T04:27:33;21.70;90.30
15690;DHT22;7945;48.816;11.506;2022-07-04T04:30:03;21.70;90.40
15690;DHT22;7945;48.816;11.506;2022-07-04T04:32:31;21.80;90.50
15690;DHT22;7945;48.816;11.506;2022-07-04T04:34:58;21.80;90.50
15690;DHT22;7945;48.816;11.506;2022-07-04T04:37:26;21.80;90.40
15690;DHT22;7945;48.816;11.506;2022-07-04T04:39:53;21.80;90.40
15690;DHT22;7945;48.816;11.506;2022-07-04T04:42:20;21.90;90.40
15690;DHT22;7945;48.816;11.506;2022-07-04T04:44:47;21.90;90.60
15690;DHT22;7945;48.816;11.506;2022-07-04T04:47:16;21.90;90.60
15690;DHT22;7945;48.816;11.506;2022-07-04T04:49:43;21.90;90.70
15690;DHT22;7945;48.816;11.506;2022-07-04T04:52:10;21.90;90.50
15690;DHT22;7945;48.816;11.506;2022-07-04T04:54:37;21.90;90.60
15690;DHT22;7945;48.816;11.506;2022-07-04T04:57:04;21.90;90.90
15690;DHT22;7945;48.816;11.506;2022-07-04T04:59:32;21.90;91.00
15690;DHT22;7945;48.816;11.506;2022-07-04T05:01:59;21.90;90.90
15690;DHT22;7945;48.816;11.506;2022-07-04T05:04:28;21.90;90.90
15690;DHT22;7945;48.816;11.506;2022-07-04T05:06:55;21.90;91.00
15690;DHT22;7945;48.816;11.506;2022-07-04T05:09:22;21.90;91.10
15690;DHT22;7945;48.816;11.506;2022-07-04T05:11:50;22.00;91.00
15690;DHT22;7945;48.816;11.506;2022-07-04T05:14:16;22.00;91.00
15690;DHT22;7945;48.816;11.506;2022-07-04T05:16:44;22.00;90.90
15690;DHT22;7945;48.816;11.506;2022-07-04T05:19:11;22.00;90.80
15690;DHT22;7945;48.816;11.506;2022-07-04T05:21:39;22.10;90.90
15690;DHT22;7945;48.816;11.506;2022-07-04T05:24:06;22.10;91.00
15690;DHT22;7945;48.816;11.506;2022-07-04T05:26:33;22.20;90.90
15690;DHT22;7945;48.816;11.506;2022-07-04T05:29:00;22.20;90.70
15690;DHT22;7945;48.816;11.506;2022-07-04T05:31:27;22.30;90.80
15690;DHT22;7945;48.816;11.506;2022-07-04T05:33:55;22.30;90.40
15690;DHT22;7945;48.816;11.506;2022-07-04T05:36:23;22.50;90.30
15690;DHT22;7945;48.816;11.506;2022-07-04T05:38:52;22.60;90.20
15690;DHT22;7945;48.816;11.506;2022-07-04T05:41:19;22.60;90.00
15690;DHT22;7945;48.816;11.506;2022-07-04T05:43:47;22.70;90.30
15690;DHT22;7945;48.816;11.506;2022-07-04T05:46:14;22.80;89.90
15690;DHT22;7945;48.816;11.506;2022-07-04T05:48:41;22.90;89.40
15690;DHT22;7945;48.816;11.506;2022-07-04T05:51:08;22.90;89.00
15690;DHT22;7945;48.816;11.506;2022-07-04T05:53:34;22.80;88.50
15690;DHT22;7945;48.816;11.506;2022-07-04T05:56:04;22.80;89.40
15690;DHT22;7945;48.816;11.506;2022-07-04T05:58:31;22.80;89.60
15690;DHT22;7945;48.816;11.506;2022-07-04T06:00:58;22.80;90.40
15690;DHT22;7945;48.816;11.506;2022-07-04T06:03:25;22.80;90.50
15690;DHT22;7945;48.816;11.506;2022-07-04T06:05:52;22.70;90.50
15690;DHT22;7945;48.816;11.506;2022-07-04T06:08:19;22.70;90.80
15690;DHT22;7945;48.816;11.506;2022-07-04T06:10:46;22.70;91.40
15690;DHT22;7945;48.816;11.506;2022-07-04T06:14:31;22.60;91.40
15690;DHT22;7945;48.816;11.506;2022-07-04T06:16:58;22.60;91.30
15690;DHT22;7945;48.816;11.506;2022-07-04T06:19:25;22.60;91.40
15690;DHT22;7945;48.816;11.506;2022-07-04T06:21:52;22.60;91.30
15690;DHT22;7945;48.816;11.506;2022-07-04T06:24:19;22.70;91.40
15690;DHT22;7945;48.816;11.506;2022-07-04T06:26:46;22.70;91.40
15690;DHT22;7945;48.816;11.506;2022-07-04T06:29:13;22.70;91.30
15690;DHT22;7945;48.816;11.506;2022-07-04T06:31:42;22.70;91.40
15690;DHT22;7945;48.816;11.506;2022-07-04T06:34:09;22.60;91.50
15690;DHT22;7945;48.816;11.506;2022-07-04T06:36:53;22.70;91.70
15690;DHT22;7945;48.816;11.506;2022-07-04T06:39:20;22.60;91.80
15690;DHT22;7945;48.816;11.506;2022-07-04T06:41:46;22.60;92.00
15690;DHT22;7945;48.816;11.506;2022-07-04T06:44:13;22.60;92.10
15690;DHT22;7945;48.816;11.506;2022-07-04T06:46:42;22.60;92.10
15690;DHT22;7945;48.816;11.506;2022-07-04T06:49:09;22.70;92.30
15690;DHT22;7945;48.816;11.506;2022-07-04T06:51:36;22.70;92.20
15690;DHT22;7945;48.816;11.506;2022-07-04T06:54:03;22.70;91.60
15690;DHT22;7945;48.816;11.506;2022-07-04T06:56:30;22.70;91.50
15690;DHT22;7945;48.816;11.506;2022-07-04T06:58:57;22.80;91.20
15690;DHT22;7945;48.816;11.506;2022-07-04T07:01:24;22.80;91.40
15690;DHT22;7945;48.816;11.506;2022-07-04T07:03:52;22.80;91.30
15690;DHT22;7945;48.816;11.506;2022-07-04T07:06:19;22.80;91.00
15690;DHT22;7945;48.816;11.506;2022-07-04T07:08:46;22.80;91.10
15690;DHT22;7945;48.816;11.506;2022-07-04T07:11:13;22.90;91.20
15690;DHT22;7945;48.816;11.506;2022-07-04T07:13:40;22.90;90.90
15690;DHT22;7945;48.816;11.506;2022-07-04T07:16:08;23.00;90.70
15690;DHT22;7945;48.816;11.506;2022-07-04T07:18:35;23.00;90.70
15690;DHT22;7945;48.816;11.506;2022-07-04T07:21:04;23.20;90.40
15690;DHT22;7945;48.816;11.506;2022-07-04T07:23:30;23.30;90.40
15690;DHT22;7945;48.816;11.506;2022-07-04T07:25:57;23.40;90.30
15690;DHT22;7945;48.816;11.506;2022-07-04T07:28:24;23.40;90.30
15690;DHT22;7945;48.816;11.506;2022-07-04T07:30:51;23.30;90.10
15690;DHT22;7945;48.816;11.506;2022-07-04T07:33:18;23.30;90.20
15690;DHT22;7945;48.816;11.506;2022-07-04T07:35:45;23.40;90.30
15690;DHT22;7945;48.816;11.506;2022-07-04T07:38:13;23.40;90.40
15690;DHT22;7945;48.816;11.506;2022-07-04T07:40:41;23.50;90.70
15690;DHT22;7945;48.816;11.506;2022-07-04T07:43:08;23.40;90.10
15690;DHT22;7945;48.816;11.506;2022-07-04T07:45:35;23.50;90.20
15690;DHT22;7945;48.816;11.506;2022-07-04T07:48:02;23.40;90.10
15690;DHT22;7945;48.816;11.506;2022-07-04T07:50:29;23.60;89.80
15690;DHT22;7945;48.816;11.506;2022-07-04T07:52:56;23.60;90.00
15690;DHT22;7945;48.816;11.506;2022-07-04T07:55:24;23.70;89.80
15690;DHT22;7945;48.816;11.506;2022-07-04T07:57:51;23.70;90.20
15690;DHT22;7945;48.816;11.506;2022-07-04T08:00:19;23.70;90.30
15690;DHT22;7945;48.816;11.506;2022-07-04T08:02:46;23.80;90.20
15690;DHT22;7945;48.816;11.506;2022-07-04T08:05:30;23.90;90.10
15690;DHT22;7945;48.816;11.506;2022-07-04T08:07:57;23.90;89.80
15690;DHT22;7945;48.816;11.506;2022-07-04T08:10:26;23.90;89.20
15690;DHT22;7945;48.816;11.506;2022-07-04T08:12:53;24.00;88.80
15690;DHT22;7945;48.816;11.506;2022-07-04T08:15:21;24.00;89.60
15690;DHT22;7945;48.816;11.506;2022-07-04T08:17:48;24.00;89.00
15690;DHT22;7945;48.816;11.506;2022-07-04T08:20:15;24.10;88.80
15690;DHT22;7945;48.816;11.506;2022-07-04T08:22:42;24.00;89.10
15690;DHT22;7945;48.816;11.506;2022-07-04T08:25:09;24.00;89.20
15690;DHT22;7945;48.816;11.506;2022-07-04T08:27:37;24.10;90.00
15690;DHT22;7945;48.816;11.506;2022-07-04T08:30:05;24.20;88.20
15690;DHT22;7945;48.816;11.506;2022-07-04T08:32:32;24.30;88.40
15690;DHT22;7945;48.816;11.506;2022-07-04T08:34:59;24.30;88.30
15690;DHT22;7945;48.816;11.506;2022-07-04T08:37:25;24.40;87.90
15690;DHT22;7945;48.816;11.506;2022-07-04T08:39:54;24.50;87.40
15690;DHT22;7945;48.816;11.506;2022-07-04T08:42:22;24.60;87.10
15690;DHT22;7945;48.816;11.506;2022-07-04T08:44:52;24.70;86.50
15690;DHT22;7945;48.816;11.506;2022-07-04T08:47:22;24.80;85.80
15690;DHT22;7945;48.816;11.506;2022-07-04T08:49:54;24.90;84.50
15690;DHT22;7945;48.816;11.506;2022-07-04T08:52:29;24.90;84.50
15690;DHT22;7945;48.816;11.506;2022-07-04T08:54:58;24.90;84.70
15690;DHT22;7945;48.816;11.506;2022-07-04T08:57:44;24.90;84.20
15690;DHT22;7945;48.816;11.506;2022-07-04T09:00:31;25.00;83.60
15690;DHT22;7945;48.816;11.506;2022-07-04T09:02:59;25.20;83.80
15690;DHT22;7945;48.816;11.506;2022-07-04T09:05:27;25.20;82.80
15690;DHT22;7945;48.816;11.506;2022-07-04T09:07:55;25.30;83.40
15690;DHT22;7945;48.816;11.506;2022-07-04T09:10:22;25.40;83.30
15690;DHT22;7945;48.816;11.506;2022-07-04T09:12:49;25.50;82.80
15690;DHT22;7945;48.816;11.506;2022-07-04T09:15:17;25.60;81.60
15690;DHT22;7945;48.816;11.506;2022-07-04T09:17:45;25.60;81.00
15690;DHT22;7945;48.816;11.506;2022-07-04T09:20:14;25.60;80.30
15690;DHT22;7945;48.816;11.506;2022-07-04T09:22:42;25.70;80.60
15690;DHT22;7945;48.816;11.506;2022-07-04T09:25:10;25.70;79.90
15690;DHT22;7945;48.816;11.506;2022-07-04T09:27:40;25.90;80.00
15690;DHT22;7945;48.816;11.506;2022-07-04T09:30:11;26.00;81.80
15690;DHT22;7945;48.816;11.506;2022-07-04T09:32:39;26.10;79.40
15690;DHT22;7945;48.816;11.506;2022-07-04T09:35:09;26.20;78.90
15690;DHT22;7945;48.816;11.506;2022-07-04T09:37:38;26.20;78.80
15690;DHT22;7945;48.816;11.506;2022-07-04T09:40:08;26.40;78.10
15690;DHT22;7945;48.816;11.506;2022-07-04T09:42:39;26.50;78.10
15690;DHT22;7945;48.816;11.506;2022-07-04T09:45:08;26.60;78.40
15690;DHT22;7945;48.816;11.506;2022-07-04T09:47:36;26.80;77.90
15690;DHT22;7945;48.816;11.506;2022-07-04T09:50:05;26.90;76.70
15690;DHT22;7945;48.816;11.506;2022-07-04T09:52:45;27.20;76.90
15690;DHT22;7945;48.816;11.506;2022-07-04T09:55:12;27.30;75.90
15690;DHT22;7945;48.816;11.506;2022-07-04T09:57:44;27.40;75.90
15690;DHT22;7945;48.816;11.506;2022-07-04T10:00:20;27.40;76.50
15690;DHT22;7945;48.816;11.506;2022-07-04T10:02:47;27.30;75.80
15690;DHT22;7945;48.816;11.506;2022-07-04T10:05:20;27.20;75.60
15690;DHT22;7945;48.816;11.506;2022-07-04T10:07:49;27.30;76.70
15690;DHT22;7945;48.816;11.506;2022-07-04T10:10:23;27.50;75.90
15690;DHT22;7945;48.816;11.506;2022-07-04T10:12:52;27.70;75.70
15690;DHT22;7945;48.816;11.506;2022-07-04T10:15:20;27.90;75.00
15690;DHT22;7945;48.816;11.506;2022-07-04T10:17:47;28.00;74.50
15690;DHT22;7945;48.816;11.506;2022-07-04T10:20:14;28.10;73.40
15690;DHT22;7945;48.816;11.506;2022-07-04T10:22:41;28.10;73.90
15690;DHT22;7945;48.816;11.506;2022-07-04T10:25:10;28.10;72.30
15690;DHT22;7945;48.816;11.506;2022-07-04T10:27:38;28.20;73.50
15690;DHT22;7945;48.816;11.506;2022-07-04T10:30:07;28.30;72.60
15690;DHT22;7945;48.816;11.506;2022-07-04T10:32:36;28.40;71.00
15690;DHT22;7945;48.816;11.506;2022-07-04T10:35:06;28.40;70.50
15690;DHT22;7945;48.816;11.506;2022-07-04T10:37:58;28.40;69.10
15690;DHT22;7945;48.816;11.506;2022-07-04T10:40:44;28.30;69.20
15690;DHT22;7945;48.816;11.506;2022-07-04T10:46:34;28.10;70.50
15690;DHT22;7945;48.816;11.506;2022-07-04T10:49:04;28.10;71.80
15690;DHT22;7945;48.816;11.506;2022-07-04T10:51:40;28.20;70.70
15690;DHT22;7945;48.816;11.506;2022-07-04T10:54:10;28.30;70.10
15690;DHT22;7945;48.816;11.506;2022-07-04T10:56:42;28.40;70.10
15690;DHT22;7945;48.816;11.506;2022-07-04T10:59:14;28.50;70.10
15690;DHT22;7945;48.816;11.506;2022-07-04T11:01:50;28.60;69.00
15690;DHT22;7945;48.816;11.506;2022-07-04T11:04:46;28.70;69.90
15690;DHT22;7945;48.816;11.506;2022-07-04T11:07:14;28.90;69.20
15690;DHT22;7945;48.816;11.506;2022-07-04T11:09:43;28.90;69.10
15690;DHT22;7945;48.816;11.506;2022-07-04T11:12:12;29.00;69.90
15690;DHT22;7945;48.816;11.506;2022-07-04T11:14:42;29.10;68.70
15690;DHT22;7945;48.816;11.506;2022-07-04T11:17:11;29.10;68.70
15690;DHT22;7945;48.816;11.506;2022-07-04T11:19:39;29.20;69.30
15690;DHT22;7945;48.816;11.506;2022-07-04T11:22:08;29.30;69.30
15690;DHT22;7945;48.816;11.506;2022-07-04T11:24:37;29.40;68.60
15690;DHT22;7945;48.816;11.506;2022-07-04T11:27:07;29.50;67.80
15690;DHT22;7945;48.816;11.506;2022-07-04T11:29:37;29.60;67.90
15690;DHT22;7945;48.816;11.506;2022-07-04T11:32:05;29.50;68.10
15690;DHT22;7945;48.816;11.506;2022-07-04T11:34:33;29.50;68.20
15690;DHT22;7945;48.816;11.506;2022-07-04T11:37:02;29.50;68.00
15690;DHT22;7945;48.816;11.506;2022-07-04T11:39:29;29.60;67.70
15690;DHT22;7945;48.816;11.506;2022-07-04T11:41:58;29.70;66.80
15690;DHT22;7945;48.816;11.506;2022-07-04T11:44:43;29.80;66.90
15690;DHT22;7945;48.816;11.506;2022-07-04T11:47:34;29.60;66.70
15690;DHT22;7945;48.816;11.506;2022-07-04T11:50:03;29.40;67.60
15690;DHT22;7945;48.816;11.506;2022-07-04T11:52:39;29.50;67.90
15690;DHT22;7945;48.816;11.506;2022-07-04T11:55:07;29.50;66.40
15690;DHT22;7945;48.816;11.506;2022-07-04T11:57:36;29.50;67.50
15690;DHT22;7945;48.816;11.506;2022-07-04T12:00:06;29.60;67.40
15690;DHT22;7945;48.816;11.506;2022-07-04T12:02:34;29.70;67.10
15690;DHT22;7945;48.816;11.506;2022-07-04T12:05:03;29.80;67.30
15690;DHT22;7945;48.816;11.506;2022-07-04T12:07:32;29.90;66.60
15690;DHT22;7945;48.816;11.506;2022-07-04T12:10:07;29.90;66.30
15690;DHT22;7945;48.816;11.506;2022-07-04T12:12:35;30.10;66.20
15690;DHT22;7945;48.816;11.506;2022-07-04T12:15:05;30.30;65.30
15690;DHT22;7945;48.816;11.506;2022-07-04T12:17:34;30.50;65.80
15690;DHT22;7945;48.816;11.506;2022-07-04T12:20:09;30.60;65.00
15690;DHT22;7945;48.816;11.506;2022-07-04T12:22:39;30.70;65.50
15690;DHT22;7945;48.816;11.506;2022-07-04T12:25:07;30.70;64.30
15690;DHT22;7945;48.816;11.506;2022-07-04T12:27:37;30.60;64.80
15690;DHT22;7945;48.816;11.506;2022-07-04T12:30:06;30.60;64.60
15690;DHT22;7945;48.816;11.506;2022-07-04T12:32:47;30.60;64.90
15690;DHT22;7945;48.816;11.506;2022-07-04T12:35:36;30.70;64.70
15690;DHT22;7945;48.816;11.506;2022-07-04T12:38:06;30.70;65.60
15690;DHT22;7945;48.816;11.506;2022-07-04T12:40:34;30.70;64.60
15690;DHT22;7945;48.816;11.506;2022-07-04T12:43:02;30.70;65.20
15690;DHT22;7945;48.816;11.506;2022-07-04T12:45:45;30.60;64.60
15690;DHT22;7945;48.816;11.506;2022-07-04T12:48:23;30.60;64.60
15690;DHT22;7945;48.816;11.506;2022-07-04T12:50:51;30.60;65.30
15690;DHT22;7945;48.816;11.506;2022-07-04T12:53:19;30.70;64.20
15690;DHT22;7945;48.816;11.506;2022-07-04T12:55:47;30.70;65.60
15690;DHT22;7945;48.816;11.506;2022-07-04T12:58:15;30.60;64.50
15690;DHT22;7945;48.816;11.506;2022-07-04T13:00:44;30.60;63.60
15690;DHT22;7945;48.816;11.506;2022-07-04T13:03:10;30.60;63.90
15690;DHT22;7945;48.816;11.506;2022-07-04T13:05:38;30.70;64.50
15690;DHT22;7945;48.816;11.506;2022-07-04T13:08:05;30.80;64.90
15690;DHT22;7945;48.816;11.506;2022-07-04T13:10:33;30.80;63.10
15690;DHT22;7945;48.816;11.506;2022-07-04T13:13:00;30.70;64.40
15690;DHT22;7945;48.816;11.506;2022-07-04T13:15:27;30.70;64.00
15690;DHT22;7945;48.816;11.506;2022-07-04T13:17:56;30.70;63.70
15690;DHT22;7945;48.816;11.506;2022-07-04T13:20:23;30.70;63.90
15690;DHT22;7945;48.816;11.506;2022-07-04T13:22:50;30.70;63.30
15690;DHT22;7945;48.816;11.506;2022-07-04T13:25:17;30.70;62.30
15690;DHT22;7945;48.816;11.506;2022-07-04T13:27:44;30.70;63.40
15690;DHT22;7945;48.816;11.506;2022-07-04T13:30:12;30.60;62.70
15690;DHT22;7945;48.816;11.506;2022-07-04T13:32:39;30.50;63.30
15690;DHT22;7945;48.816;11.506;2022-07-04T13:35:08;30.60;64.50
15690;DHT22;7945;48.816;11.506;2022-07-04T13:37:35;30.70;62.90
15690;DHT22;7945;48.816;11.506;2022-07-04T13:40:02;30.80;64.00
15690;DHT22;7945;48.816;11.506;2022-07-04T13:42:30;30.70;62.80
15690;DHT22;7945;48.816;11.506;2022-07-04T13:45:14;30.70;63.00
15690;DHT22;7945;48.816;11.506;2022-07-04T13:47:43;30.70;62.40
15690;DHT22;7945;48.816;11.506;2022-07-04T13:50:12;30.60;62.20
15690;DHT22;7945;48.816;11.506;2022-07-04T13:52:39;30.50;63.20
15690;DHT22;7945;48.816;11.506;2022-07-04T13:55:07;30.40;62.80
15690;DHT22;7945;48.816;11.506;2022-07-04T13:57:35;30.30;62.80
15690;DHT22;7945;48.816;11.506;2022-07-04T14:00:03;30.20;63.20
15690;DHT22;7945;48.816;11.506;2022-07-04T14:02:31;30.20;63.00
15690;DHT22;7945;48.816;11.506;2022-07-04T14:04:58;30.10;63.30
15690;DHT22;7945;48.816;11.506;2022-07-04T14:07:26;30.20;63.30
15690;DHT22;7945;48.816;11.506;2022-07-04T14:09:54;30.20;63.40
15690;DHT22;7945;48.816;11.506;2022-07-04T14:12:21;30.30;63.50
15690;DHT22;7945;48.816;11.506;2022-07-04T14:14:48;30.40;63.40
15690;DHT22;7945;48.816;11.506;2022-07-04T14:17:15;30.40;62.00
15690;DHT22;7945;48.816;11.506;2022-07-04T14:19:42;30.40;62.50
15690;DHT22;7945;48.816;11.506;2022-07-04T14:22:09;30.40;62.20
15690;DHT22;7945;48.816;11.506;2022-07-04T14:24:38;30.50;61.80
15690;DHT22;7945;48.816;11.506;2022-07-04T14:27:05;30.40;62.20
15690;DHT22;7945;48.816;11.506;2022-07-04T14:29:32;30.40;62.50
15690;DHT22;7945;48.816;11.506;2022-07-04T14:32:01;30.40;63.10
15690;DHT22;7945;48.816;11.506;2022-07-04T14:34:28;30.50;63.80
15690;DHT22;7945;48.816;11.506;2022-07-04T14:36:56;30.60;62.40
15690;DHT22;7945;48.816;11.506;2022-07-04T14:39:23;30.70;62.70
15690;DHT22;7945;48.816;11.506;2022-07-04T14:41:52;30.70;61.50
15690;DHT22;7945;48.816;11.506;2022-07-04T14:44:20;30.60;61.80
15690;DHT22;7945;48.816;11.506;2022-07-04T14:46:48;30.60;62.00
15690;DHT22;7945;48.816;11.506;2022-07-04T14:49:15;30.50;62.20
15690;DHT22;7945;48.816;11.506;2022-07-04T14:51:42;30.50;62.40
15690;DHT22;7945;48.816;11.506;2022-07-04T14:54:10;30.60;61.50
15690;DHT22;7945;48.816;11.506;2022-07-04T14:56:37;30.70;61.90
15690;DHT22;7945;48.816;11.506;2022-07-04T14:59:06;30.70;63.10
15690;DHT22;7945;48.816;11.506;2022-07-04T15:01:33;30.80;61.70
15690;DHT22;7945;48.816;11.506;2022-07-04T15:04:00;30.80;61.80
15690;DHT22;7945;48.816;11.506;2022-07-04T15:06:27;30.90;60.70
15690;DHT22;7945;48.816;11.506;2022-07-04T15:08:54;30.80;60.50
15690;DHT22;7945;48.816;11.506;2022-07-04T15:11:21;30.80;61.10
15690;DHT22;7945;48.816;11.506;2022-07-04T15:13:48;30.80;61.00
15690;DHT22;7945;48.816;11.506;2022-07-04T15:16:17;30.90;60.60
15690;DHT22;7945;48.816;11.506;2022-07-04T15:18:44;30.90;59.60
15690;DHT22;7945;48.816;11.506;2022-07-04T15:21:11;30.80;59.50
15690;DHT22;7945;48.816;11.506;2022-07-04T15:23:55;30.80;59.80
15690;DHT22;7945;48.816;11.506;2022-07-04T15:26:37;30.80;59.80
15690;DHT22;7945;48.816;11.506;2022-07-04T15:29:04;30.80;59.30
15690;DHT22;7945;48.816;11.506;2022-07-04T15:31:33;30.80;59.80
15690;DHT22;7945;48.816;11.506;2022-07-04T15:34:00;30.80;60.00
15690;DHT22;7945;48.816;11.506;2022-07-04T15:36:27;30.70;60.00
15690;DHT22;7945;48.816;11.506;2022-07-04T15:38:54;30.60;60.40
15690;DHT22;7945;48.816;11.506;2022-07-04T15:41:21;30.40;60.50
15690;DHT22;7945;48.816;11.506;2022-07-04T15:43:48;30.30;60.70